sensor_id;sensor_type;location;lat;lon;timestamp;P1;durP1;ratioP1;P2;durP2;ratioP2
70414;SDS011;57837;52.064;113.478;2023-03-01T00:00:46;46.07;;;21.70;;
70414;SDS011;57837;52.064;113.478;2023-03-01T00:03:50;110.88;;;45.45;;
70414;SDS011;57837;52.064;113.478;2023-03-01T00:06:55;103.22;;;41.97;;
70414;SDS011;57837;52.064;113.478;2023-03-01T00:09:58;136.25;;;58.58;;
70414;SDS011;57837;52.064;113.478;2023-03-01T00:13:02;64.80;;;30.70;;
70414;SDS011;57837;52.064;113.478;2023-03-01T00:16:08;172.20;;;67.22;;
70414;SDS011;57837;52.064;113.478;2023-03-01T00:19:15;49.97;;;28.50;;
70414;SDS011;57837;52.064;113.478;2023-03-01T00:22:20;108.77;;;47.27;;
70414;SDS011;57837;52.064;113.478;2023-03-01T00:25:24;74.55;;;32.83;;
70414;SDS011;57837;52.064;113.478;2023-03-01T00:28:28;64.88;;;25.85;;
70414;SDS011;57837;52.064;113.478;2023-03-01T00:31:32;173.20;;;67.57;;
70414;SDS011;57837;52.064;113.478;2023-03-01T00:34:36;126.57;;;53.17;;
70414;SDS011;57837;52.064;113.478;2023-03-01T00:37:39;54.17;;;29.45;;
70414;SDS011;57837;52.064;113.478;2023-03-01T00:40:44;170.40;;;60.60;;
70414;SDS011;57837;52.064;113.478;2023-03-01T00:43:48;185.30;;;69.25;;
70414;SDS011;57837;52.064;113.478;2023-03-01T00:46:53;86.97;;;39.00;;
70414;SDS011;57837;52.064;113.478;2023-03-01T00:49:57;111.20;;;47.45;;
70414;SDS011;57837;52.064;113.478;2023-03-01T00:53:01;86.80;;;42.73;;
70414;SDS011;57837;52.064;113.478;2023-03-01T00:56:05;94.97;;;39.83;;
70414;SDS011;57837;52.064;113.478;2023-03-01T00:59:10;113.22;;;47.55;;
70414;SDS011;57837;52.064;113.478;2023-03-01T01:02:14;135.53;;;46.20;;
70414;SDS011;57837;52.064;113.478;2023-03-01T01:05:18;104.90;;;44.58;;
70414;SDS011;57837;52.064;113.478;2023-03-01T01:08:23;258.77;;;84.72;;
70414;SDS011;57837;52.064;113.478;2023-03-01T01:11:28;212.48;;;88.43;;
70414;SDS011;57837;52.064;113.478;2023-03-01T01:14:32;193.35;;;78.50;;
70414;SDS011;57837;52.064;113.478;2023-03-01T01:17:35;153.50;;;64.43;;
70414;SDS011;57837;52.064;113.478;2023-03-01T01:20:38;245.40;;;97.68;;
70414;SDS011;57837;52.064;113.478;2023-03-01T01:23:42;253.97;;;97.37;;
70414;SDS011;57837;52.064;113.478;2023-03-01T01:26:46;261.75;;;98.97;;
70414;SDS011;57837;52.064;113.478;2023-03-01T01:29:50;212.35;;;88.82;;
70414;SDS011;57837;52.064;113.478;2023-03-01T01:32:56;218.17;;;87.47;;
70414;SDS011;57837;52.064;113.478;2023-03-01T01:36:00;129.65;;;47.10;;
70414;SDS011;57837;52.064;113.478;2023-03-01T01:39:03;64.07;;;27.27;;
70414;SDS011;57837;52.064;113.478;2023-03-01T01:42:11;101.78;;;37.47;;
70414;SDS011;57837;52.064;113.478;2023-03-01T01:45:27;68.85;;;29.58;;
70414;SDS011;57837;52.064;113.478;2023-03-01T01:48:39;159.02;;;55.15;;
70414;SDS011;57837;52.064;113.478;2023-03-01T01:51:46;121.53;;;45.03;;
70414;SDS011;57837;52.064;113.478;2023-03-01T01:54:53;130.50;;;48.33;;
70414;SDS011;57837;52.064;113.478;2023-03-01T01:58:00;153.77;;;59.88;;
70414;SDS011;57837;52.064;113.478;2023-03-01T02:01:07;149.30;;;59.25;;
70414;SDS011;57837;52.064;113.478;2023-03-01T02:04:11;123.13;;;46.27;;
70414;SDS011;57837;52.064;113.478;2023-03-01T02:07:16;102.95;;;36.83;;
70414;SDS011;57837;52.064;113.478;2023-03-01T02:10:24;90.95;;;35.33;;
70414;SDS011;57837;52.064;113.478;2023-03-01T02:13:29;102.07;;;38.90;;
70414;SDS011;57837;52.064;113.478;2023-03-01T02:16:35;92.90;;;34.60;;
70414;SDS011;57837;52.064;113.478;2023-03-01T02:22:44;84.13;;;33.13;;
70414;SDS011;57837;52.064;113.478;2023-03-01T02:29:12;92.55;;;33.40;;
70414;SDS011;57837;52.064;113.478;2023-03-01T02:32:16;115.95;;;41.92;;
70414;SDS011;57837;52.064;113.478;2023-03-01T02:35:27;135.13;;;47.78;;
70414;SDS011;57837;52.064;113.478;2023-03-01T02:38:36;117.00;;;43.97;;
70414;SDS011;57837;52.064;113.478;2023-03-01T02:41:41;108.85;;;40.50;;
70414;SDS011;57837;52.064;113.478;2023-03-01T02:44:49;106.50;;;37.47;;
70414;SDS011;57837;52.064;113.478;2023-03-01T02:47:54;125.53;;;49.10;;
70414;SDS011;57837;52.064;113.478;2023-03-01T02:51:14;112.90;;;42.30;;
70414;SDS011;57837;52.064;113.478;2023-03-01T02:58:03;116.15;;;44.65;;
70414;SDS011;57837;52.064;113.478;2023-03-01T03:01:08;98.20;;;40.43;;
70414;SDS011;57837;52.064;113.478;2023-03-01T03:04:14;100.50;;;39.30;;
70414;SDS011;57837;52.064;113.478;2023-03-01T03:07:24;60.83;;;25.52;;
70414;SDS011;57837;52.064;113.478;2023-03-01T03:10:29;52.10;;;24.00;;
70414;SDS011;57837;52.064;113.478;2023-03-01T03:13:36;53.65;;;23.23;;
70414;SDS011;57837;52.064;113.478;2023-03-01T03:16:43;47.83;;;19.60;;
70414;SDS011;57837;52.064;113.478;2023-03-01T03:19:49;47.45;;;20.33;;
70414;SDS011;57837;52.064;113.478;2023-03-01T03:22:53;32.60;;;13.23;;
70414;SDS011;57837;52.064;113.478;2023-03-01T03:25:57;34.47;;;16.33;;
70414;SDS011;57837;52.064;113.478;2023-03-01T03:29:00;23.73;;;10.20;;
70414;SDS011;57837;52.064;113.478;2023-03-01T03:32:04;24.05;;;10.38;;
70414;SDS011;57837;52.064;113.478;2023-03-01T03:35:08;31.48;;;14.68;;
70414;SDS011;57837;52.064;113.478;2023-03-01T03:38:13;31.42;;;13.27;;
70414;SDS011;57837;52.064;113.478;2023-03-01T03:41:20;20.05;;;9.30;;
70414;SDS011;57837;52.064;113.478;2023-03-01T03:44:23;30.03;;;9.57;;
70414;SDS011;57837;52.064;113.478;2023-03-01T03:47:27;36.63;;;15.32;;
70414;SDS011;57837;52.064;113.478;2023-03-01T03:50:31;23.65;;;10.68;;
70414;SDS011;57837;52.064;113.478;2023-03-01T03:53:34;23.45;;;9.95;;
70414;SDS011;57837;52.064;113.478;2023-03-01T03:56:37;26.80;;;11.65;;
70414;SDS011;57837;52.064;113.478;2023-03-01T03:59:41;21.80;;;9.20;;
70414;SDS011;57837;52.064;113.478;2023-03-01T04:02:45;26.92;;;10.52;;
70414;SDS011;57837;52.064;113.478;2023-03-01T04:05:50;21.85;;;9.90;;
70414;SDS011;57837;52.064;113.478;2023-03-01T04:08:54;28.23;;;11.57;;
70414;SDS011;57837;52.064;113.478;2023-03-01T04:12:01;26.80;;;11.05;;
70414;SDS011;57837;52.064;113.478;2023-03-01T04:15:05;32.90;;;11.20;;
70414;SDS011;57837;52.064;113.478;2023-03-01T04:18:17;26.75;;;10.73;;
70414;SDS011;57837;52.064;113.478;2023-03-01T04:21:22;21.63;;;9.13;;
70414;SDS011;57837;52.064;113.478;2023-03-01T04:24:26;22.60;;;9.13;;
70414;SDS011;57837;52.064;113.478;2023-03-01T04:27:29;19.98;;;8.63;;
70414;SDS011;57837;52.064;113.478;2023-03-01T04:30:34;11.37;;;4.97;;
70414;SDS011;57837;52.064;113.478;2023-03-01T04:33:45;21.48;;;8.40;;
70414;SDS011;57837;52.064;113.478;2023-03-01T04:36:49;26.67;;;12.20;;
70414;SDS011;57837;52.064;113.478;2023-03-01T04:39:53;15.57;;;5.70;;
70414;SDS011;57837;52.064;113.478;2023-03-01T04:42:57;18.83;;;7.30;;
70414;SDS011;57837;52.064;113.478;2023-03-01T04:46:02;16.53;;;5.77;;
70414;SDS011;57837;52.064;113.478;2023-03-01T04:49:12;15.23;;;7.28;;
70414;SDS011;57837;52.064;113.478;2023-03-01T04:52:16;19.83;;;9.35;;
70414;SDS011;57837;52.064;113.478;2023-03-01T04:55:19;23.13;;;7.85;;
70414;SDS011;57837;52.064;113.478;2023-03-01T04:58:23;16.00;;;6.28;;
70414;SDS011;57837;52.064;113.478;2023-03-01T05:01:28;13.13;;;5.33;;
70414;SDS011;57837;52.064;113.478;2023-03-01T05:04:31;8.73;;;4.88;;
70414;SDS011;57837;52.064;113.478;2023-03-01T05:07:35;18.58;;;7.43;;
70414;SDS011;57837;52.064;113.478;2023-03-01T05:10:39;9.30;;;4.05;;
70414;SDS011;57837;52.064;113.478;2023-03-01T05:13:47;10.90;;;5.10;;
70414;SDS011;57837;52.064;113.478;2023-03-01T05:16:52;13.30;;;5.27;;
70414;SDS011;57837;52.064;113.478;2023-03-01T05:19:56;9.57;;;3.92;;
70414;SDS011;57837;52.064;113.478;2023-03-01T05:23:01;14.13;;;3.88;;
70414;SDS011;57837;52.064;113.478;2023-03-01T05:26:07;14.23;;;4.43;;
70414;SDS011;57837;52.064;113.478;2023-03-01T05:29:29;10.80;;;4.35;;
70414;SDS011;57837;52.064;113.478;2023-03-01T05:32:34;6.70;;;3.90;;
70414;SDS011;57837;52.064;113.478;2023-03-01T05:35:37;9.82;;;4.32;;
70414;SDS011;57837;52.064;113.478;2023-03-01T05:38:40;12.85;;;4.35;;
70414;SDS011;57837;52.064;113.478;2023-03-01T05:41:43;14.52;;;6.18;;
70414;SDS011;57837;52.064;113.478;2023-03-01T05:44:46;8.85;;;5.05;;
70414;SDS011;57837;52.064;113.478;2023-03-01T05:47:49;13.97;;;5.97;;
70414;SDS011;57837;52.064;113.478;2023-03-01T05:50:54;10.68;;;5.65;;
70414;SDS011;57837;52.064;113.478;2023-03-01T05:54:02;10.10;;;4.25;;
70414;SDS011;57837;52.064;113.478;2023-03-01T05:57:07;11.88;;;4.57;;
70414;SDS011;57837;52.064;113.478;2023-03-01T06:00:11;6.72;;;3.38;;
70414;SDS011;57837;52.064;113.478;2023-03-01T06:03:16;7.20;;;3.73;;
70414;SDS011;57837;52.064;113.478;2023-03-01T06:06:20;16.73;;;4.55;;
70414;SDS011;57837;52.064;113.478;2023-03-01T06:09:24;12.27;;;6.95;;
70414;SDS011;57837;52.064;113.478;2023-03-01T06:12:35;19.42;;;10.75;;
70414;SDS011;57837;52.064;113.478;2023-03-01T06:15:40;14.57;;;5.43;;
70414;SDS011;57837;52.064;113.478;2023-03-01T06:18:43;10.80;;;4.40;;
70414;SDS011;57837;52.064;113.478;2023-03-01T06:21:47;9.80;;;4.40;;
70414;SDS011;57837;52.064;113.478;2023-03-01T06:24:50;12.25;;;4.32;;
70414;SDS011;57837;52.064;113.478;2023-03-01T06:27:55;12.77;;;5.82;;
70414;SDS011;57837;52.064;113.478;2023-03-01T06:30:59;7.40;;;3.03;;
70414;SDS011;57837;52.064;113.478;2023-03-01T06:34:03;15.73;;;4.40;;
70414;SDS011;57837;52.064;113.478;2023-03-01T06:37:07;9.55;;;4.20;;
70414;SDS011;57837;52.064;113.478;2023-03-01T06:40:11;9.30;;;4.30;;
70414;SDS011;57837;52.064;113.478;2023-03-01T06:43:16;9.82;;;4.53;;
70414;SDS011;57837;52.064;113.478;2023-03-01T06:46:20;17.92;;;6.88;;
70414;SDS011;57837;52.064;113.478;2023-03-01T06:49:23;20.83;;;6.33;;
70414;SDS011;57837;52.064;113.478;2023-03-01T06:52:27;13.75;;;5.20;;
70414;SDS011;57837;52.064;113.478;2023-03-01T06:55:32;13.65;;;5.95;;
70414;SDS011;57837;52.064;113.478;2023-03-01T06:58:37;17.23;;;6.72;;
70414;SDS011;57837;52.064;113.478;2023-03-01T07:01:40;16.88;;;6.95;;
70414;SDS011;57837;52.064;113.478;2023-03-01T07:04:44;15.80;;;5.87;;
70414;SDS011;57837;52.064;113.478;2023-03-01T07:07:48;9.57;;;4.45;;
70414;SDS011;57837;52.064;113.478;2023-03-01T07:10:57;19.55;;;6.13;;
70414;SDS011;57837;52.064;113.478;2023-03-01T07:14:01;18.55;;;7.82;;
70414;SDS011;57837;52.064;113.478;2023-03-01T07:17:05;28.08;;;11.65;;
70414;SDS011;57837;52.064;113.478;2023-03-01T07:20:09;18.40;;;9.10;;
70414;SDS011;57837;52.064;113.478;2023-03-01T07:23:13;17.35;;;7.82;;
70414;SDS011;57837;52.064;113.478;2023-03-01T07:26:16;17.20;;;6.90;;
70414;SDS011;57837;52.064;113.478;2023-03-01T07:29:20;15.45;;;5.97;;
70414;SDS011;57837;52.064;113.478;2023-03-01T07:32:27;12.93;;;5.20;;
70414;SDS011;57837;52.064;113.478;2023-03-01T07:35:31;11.10;;;5.13;;
70414;SDS011;57837;52.064;113.478;2023-03-01T07:38:36;15.73;;;7.15;;
70414;SDS011;57837;52.064;113.478;2023-03-01T07:41:39;16.67;;;8.52;;
70414;SDS011;57837;52.064;113.478;2023-03-01T07:44:43;19.65;;;8.07;;
70414;SDS011;57837;52.064;113.478;2023-03-01T07:47:46;16.02;;;7.05;;
70414;SDS011;57837;52.064;113.478;2023-03-01T07:50:50;13.93;;;5.47;;
70414;SDS011;57837;52.064;113.478;2023-03-01T07:53:54;25.75;;;9.88;;
70414;SDS011;57837;52.064;113.478;2023-03-01T07:56:57;15.88;;;6.60;;
70414;SDS011;57837;52.064;113.478;2023-03-01T08:00:00;14.45;;;6.82;;
70414;SDS011;57837;52.064;113.478;2023-03-01T08:03:12;16.00;;;6.68;;
70414;SDS011;57837;52.064;113.478;2023-03-01T08:06:16;22.43;;;6.30;;
70414;SDS011;57837;52.064;113.478;2023-03-01T08:09:19;18.63;;;7.10;;
70414;SDS011;57837;52.064;113.478;2023-03-01T08:12:23;26.25;;;9.48;;
70414;SDS011;57837;52.064;113.478;2023-03-01T08:15:27;20.40;;;7.72;;
70414;SDS011;57837;52.064;113.478;2023-03-01T08:18:31;16.42;;;6.53;;
70414;SDS011;57837;52.064;113.478;2023-03-01T08:21:35;11.97;;;5.17;;
70414;SDS011;57837;52.064;113.478;2023-03-01T08:24:39;22.27;;;8.80;;
70414;SDS011;57837;52.064;113.478;2023-03-01T08:27:42;31.02;;;10.80;;
70414;SDS011;57837;52.064;113.478;2023-03-01T08:30:46;26.85;;;10.85;;
70414;SDS011;57837;52.064;113.478;2023-03-01T08:33:50;26.17;;;9.97;;
70414;SDS011;57837;52.064;113.478;2023-03-01T08:36:59;38.83;;;14.13;;
70414;SDS011;57837;52.064;113.478;2023-03-01T08:40:03;31.02;;;11.98;;
70414;SDS011;57837;52.064;113.478;2023-03-01T08:43:09;29.98;;;11.52;;
70414;SDS011;57837;52.064;113.478;2023-03-01T08:46:13;24.98;;;10.50;;
70414;SDS011;57837;52.064;113.478;2023-03-01T08:49:18;29.07;;;11.97;;
70414;SDS011;57837;52.064;113.478;2023-03-01T08:52:22;48.88;;;16.23;;
70414;SDS011;57837;52.064;113.478;2023-03-01T08:55:27;63.72;;;20.95;;
70414;SDS011;57837;52.064;113.478;2023-03-01T08:58:30;69.35;;;23.63;;
70414;SDS011;57837;52.064;113.478;2023-03-01T09:01:34;53.88;;;21.08;;
70414;SDS011;57837;52.064;113.478;2023-03-01T09:04:39;54.78;;;19.25;;
70414;SDS011;57837;52.064;113.478;2023-03-01T09:07:43;61.97;;;20.15;;
70414;SDS011;57837;52.064;113.478;2023-03-01T09:10:47;47.40;;;18.63;;
70414;SDS011;57837;52.064;113.478;2023-03-01T09:13:50;33.67;;;15.52;;
70414;SDS011;57837;52.064;113.478;2023-03-01T09:16:54;30.03;;;13.83;;
70414;SDS011;57837;52.064;113.478;2023-03-01T09:19:58;43.75;;;13.90;;
70414;SDS011;57837;52.064;113.478;2023-03-01T09:23:02;28.65;;;12.75;;
70414;SDS011;57837;52.064;113.478;2023-03-01T09:26:08;33.35;;;13.48;;
70414;SDS011;57837;52.064;113.478;2023-03-01T09:29:13;29.17;;;12.60;;
70414;SDS011;57837;52.064;113.478;2023-03-01T09:32:17;16.95;;;7.70;;
70414;SDS011;57837;52.064;113.478;2023-03-01T09:35:21;17.73;;;6.68;;
70414;SDS011;57837;52.064;113.478;2023-03-01T09:38:26;18.13;;;6.20;;
70414;SDS011;57837;52.064;113.478;2023-03-01T09:45:06;35.67;;;13.38;;
70414;SDS011;57837;52.064;113.478;2023-03-01T09:48:19;35.47;;;15.15;;
70414;SDS011;57837;52.064;113.478;2023-03-01T09:51:30;44.20;;;18.52;;
70414;SDS011;57837;52.064;113.478;2023-03-01T09:54:35;38.47;;;16.07;;
70414;SDS011;57837;52.064;113.478;2023-03-01T09:57:46;24.42;;;9.65;;
70414;SDS011;57837;52.064;113.478;2023-03-01T10:00:53;32.78;;;11.18;;
70414;SDS011;57837;52.064;113.478;2023-03-01T10:07:30;34.10;;;12.60;;
70414;SDS011;57837;52.064;113.478;2023-03-01T10:10:39;24.70;;;8.73;;
70414;SDS011;57837;52.064;113.478;2023-03-01T10:16:58;31.42;;;12.13;;
70414;SDS011;57837;52.064;113.478;2023-03-01T10:20:25;27.45;;;11.57;;
70414;SDS011;57837;52.064;113.478;2023-03-01T10:23:50;36.20;;;12.25;;
70414;SDS011;57837;52.064;113.478;2023-03-01T10:26:57;44.90;;;18.15;;
70414;SDS011;57837;52.064;113.478;2023-03-01T10:33:23;66.05;;;24.10;;
70414;SDS011;57837;52.064;113.478;2023-03-01T10:36:35;50.85;;;19.67;;
70414;SDS011;57837;52.064;113.478;2023-03-01T10:39:55;34.75;;;13.98;;
70414;SDS011;57837;52.064;113.478;2023-03-01T10:43:00;43.80;;;17.43;;
70414;SDS011;57837;52.064;113.478;2023-03-01T10:46:21;66.85;;;26.17;;
70414;SDS011;57837;52.064;113.478;2023-03-01T10:49:28;148.88;;;40.50;;
70414;SDS011;57837;52.064;113.478;2023-03-01T10:52:32;156.85;;;45.33;;
70414;SDS011;57837;52.064;113.478;2023-03-01T10:55:40;178.15;;;51.22;;
70414;SDS011;57837;52.064;113.478;2023-03-01T11:05:27;90.80;;;34.67;;
70414;SDS011;57837;52.064;113.478;2023-03-01T11:08:41;75.10;;;30.00;;
70414;SDS011;57837;52.064;113.478;2023-03-01T11:11:50;83.63;;;29.63;;
70414;SDS011;57837;52.064;113.478;2023-03-01T11:14:56;87.80;;;32.35;;
70414;SDS011;57837;52.064;113.478;2023-03-01T11:17:59;80.60;;;31.27;;
70414;SDS011;57837;52.064;113.478;2023-03-01T11:21:15;98.60;;;40.23;;
70414;SDS011;57837;52.064;113.478;2023-03-01T11:24:19;100.28;;;40.60;;
70414;SDS011;57837;52.064;113.478;2023-03-01T11:27:38;124.50;;;45.80;;
70414;SDS011;57837;52.064;113.478;2023-03-01T11:30:51;88.75;;;35.10;;
70414;SDS011;57837;52.064;113.478;2023-03-01T11:34:11;84.33;;;29.87;;
70414;SDS011;57837;52.064;113.478;2023-03-01T11:44:14;96.15;;;36.45;;
70414;SDS011;57837;52.064;113.478;2023-03-01T11:50:45;110.68;;;43.65;;
70414;SDS011;57837;52.064;113.478;2023-03-01T12:08:14;106.95;;;39.13;;
70414;SDS011;57837;52.064;113.478;2023-03-01T12:11:41;88.78;;;34.17;;
70414;SDS011;57837;52.064;113.478;2023-03-01T12:25:07;80.25;;;32.03;;
70414;SDS011;57837;52.064;113.478;2023-03-01T12:35:05;81.38;;;32.35;;
70414;SDS011;57837;52.064;113.478;2023-03-01T12:45:12;84.85;;;30.85;;
70414;SDS011;57837;52.064;113.478;2023-03-01T12:48:43;98.78;;;37.17;;
70414;SDS011;57837;52.064;113.478;2023-03-01T12:55:36;96.45;;;35.25;;
70414;SDS011;57837;52.064;113.478;2023-03-01T12:58:57;95.72;;;36.95;;
70414;SDS011;57837;52.064;113.478;2023-03-01T13:05:40;194.30;;;61.10;;
70414;SDS011;57837;52.064;113.478;2023-03-01T13:09:08;121.40;;;42.03;;
70414;SDS011;57837;52.064;113.478;2023-03-01T13:12:43;134.65;;;45.72;;
70414;SDS011;57837;52.064;113.478;2023-03-01T13:15:52;103.95;;;36.08;;
70414;SDS011;57837;52.064;113.478;2023-03-01T13:22:32;89.40;;;34.90;;
70414;SDS011;57837;52.064;113.478;2023-03-01T13:29:11;67.35;;;24.65;;
70414;SDS011;57837;52.064;113.478;2023-03-01T13:32:31;77.60;;;26.10;;
70414;SDS011;57837;52.064;113.478;2023-03-01T13:35:45;130.52;;;45.50;;
70414;SDS011;57837;52.064;113.478;2023-03-01T13:42:51;121.07;;;43.90;;
70414;SDS011;57837;52.064;113.478;2023-03-01T13:46:01;103.40;;;37.70;;
70414;SDS011;57837;52.064;113.478;2023-03-01T13:49:13;91.88;;;35.75;;
70414;SDS011;57837;52.064;113.478;2023-03-01T13:55:50;99.17;;;34.97;;
70414;SDS011;57837;52.064;113.478;2023-03-01T13:59:00;97.32;;;35.03;;
70414;SDS011;57837;52.064;113.478;2023-03-01T14:02:11;92.05;;;32.00;;
70414;SDS011;57837;52.064;113.478;2023-03-01T14:05:16;85.70;;;31.70;;
70414;SDS011;57837;52.064;113.478;2023-03-01T14:08:21;84.30;;;30.60;;
70414;SDS011;57837;52.064;113.478;2023-03-01T14:21:24;51.58;;;17.25;;
70414;SDS011;57837;52.064;113.478;2023-03-01T14:24:29;45.67;;;18.20;;
70414;SDS011;57837;52.064;113.478;2023-03-01T14:27:37;70.03;;;27.52;;
70414;SDS011;57837;52.064;113.478;2023-03-01T14:30:49;60.05;;;20.85;;
70414;SDS011;57837;52.064;113.478;2023-03-01T14:33:56;76.72;;;27.23;;
70414;SDS011;57837;52.064;113.478;2023-03-01T14:37:10;77.78;;;26.45;;
70414;SDS011;57837;52.064;113.478;2023-03-01T14:40:36;73.73;;;24.97;;
70414;SDS011;57837;52.064;113.478;2023-03-01T14:43:44;63.40;;;22.30;;
70414;SDS011;57837;52.064;113.478;2023-03-01T14:46:53;59.45;;;19.90;;
70414;SDS011;57837;52.064;113.478;2023-03-01T14:50:01;51.92;;;19.20;;
70414;SDS011;57837;52.064;113.478;2023-03-01T14:53:25;50.07;;;17.00;;
70414;SDS011;57837;52.064;113.478;2023-03-01T14:56:45;43.45;;;15.45;;
70414;SDS011;57837;52.064;113.478;2023-03-01T14:59:54;43.58;;;16.63;;
70414;SDS011;57837;52.064;113.478;2023-03-01T15:03:14;40.58;;;15.02;;
70414;SDS011;57837;52.064;113.478;2023-03-01T15:06:34;43.28;;;14.48;;
70414;SDS011;57837;52.064;113.478;2023-03-01T15:09:38;36.28;;;14.40;;
70414;SDS011;57837;52.064;113.478;2023-03-01T15:12:43;32.03;;;12.88;;
70414;SDS011;57837;52.064;113.478;2023-03-01T15:15:46;23.37;;;9.50;;
70414;SDS011;57837;52.064;113.478;2023-03-01T15:18:54;22.95;;;9.35;;
70414;SDS011;57837;52.064;113.478;2023-03-01T15:22:12;30.80;;;11.43;;
70414;SDS011;57837;52.064;113.478;2023-03-01T15:25:18;27.30;;;9.75;;
70414;SDS011;57837;52.064;113.478;2023-03-01T15:28:29;30.10;;;10.07;;
70414;SDS011;57837;52.064;113.478;2023-03-01T15:31:36;44.33;;;15.75;;
70414;SDS011;57837;52.064;113.478;2023-03-01T15:34:42;39.95;;;15.57;;
70414;SDS011;57837;52.064;113.478;2023-03-01T15:37:45;41.97;;;13.83;;
70414;SDS011;57837;52.064;113.478;2023-03-01T15:40:51;30.60;;;9.43;;
70414;SDS011;57837;52.064;113.478;2023-03-01T15:43:56;23.85;;;8.05;;
70414;SDS011;57837;52.064;113.478;2023-03-01T15:47:20;17.17;;;6.65;;
70414;SDS011;57837;52.064;113.478;2023-03-01T15:50:28;18.03;;;6.90;;
70414;SDS011;57837;52.064;113.478;2023-03-01T15:53:38;16.83;;;6.13;;
70414;SDS011;57837;52.064;113.478;2023-03-01T15:56:54;19.00;;;5.28;;
70414;SDS011;57837;52.064;113.478;2023-03-01T15:59:58;19.38;;;6.32;;
70414;SDS011;57837;52.064;113.478;2023-03-01T16:03:05;17.98;;;4.82;;
70414;SDS011;57837;52.064;113.478;2023-03-01T16:06:11;14.75;;;4.57;;
70414;SDS011;57837;52.064;113.478;2023-03-01T16:09:16;14.18;;;4.30;;
70414;SDS011;57837;52.064;113.478;2023-03-01T16:12:20;13.00;;;4.17;;
70414;SDS011;57837;52.064;113.478;2023-03-01T16:15:25;7.90;;;2.35;;
70414;SDS011;57837;52.064;113.478;2023-03-01T16:18:33;5.80;;;2.80;;
70414;SDS011;57837;52.064;113.478;2023-03-01T16:21:37;6.40;;;2.40;;
70414;SDS011;57837;52.064;113.478;2023-03-01T16:24:41;11.67;;;3.17;;
70414;SDS011;57837;52.064;113.478;2023-03-01T16:27:47;6.50;;;2.28;;
70414;SDS011;57837;52.064;113.478;2023-03-01T16:30:52;8.07;;;2.72;;
70414;SDS011;57837;52.064;113.478;2023-03-01T16:33:56;7.93;;;2.42;;
70414;SDS011;57837;52.064;113.478;2023-03-01T16:37:02;9.45;;;3.90;;
70414;SDS011;57837;52.064;113.478;2023-03-01T16:40:30;12.05;;;4.43;;
70414;SDS011;57837;52.064;113.478;2023-03-01T16:43:34;8.05;;;3.25;;
70414;SDS011;57837;52.064;113.478;2023-03-01T16:46:38;12.67;;;3.47;;
70414;SDS011;57837;52.064;113.478;2023-03-01T16:49:46;6.78;;;2.88;;
70414;SDS011;57837;52.064;113.478;2023-03-01T16:52:50;8.77;;;3.10;;
70414;SDS011;57837;52.064;113.478;2023-03-01T16:55:55;6.97;;;2.33;;
70414;SDS011;57837;52.064;113.478;2023-03-01T16:59:01;7.93;;;2.60;;
70414;SDS011;57837;52.064;113.478;2023-03-01T17:02:09;10.48;;;2.85;;
70414;SDS011;57837;52.064;113.478;2023-03-01T17:05:15;8.50;;;2.78;;
70414;SDS011;57837;52.064;113.478;2023-03-01T17:08:18;4.57;;;2.00;;
70414;SDS011;57837;52.064;113.478;2023-03-01T17:11:22;5.33;;;2.43;;
70414;SDS011;57837;52.064;113.478;2023-03-01T17:14:26;7.88;;;2.67;;
70414;SDS011;57837;52.064;113.478;2023-03-01T17:17:29;6.55;;;2.70;;
70414;SDS011;57837;52.064;113.478;2023-03-01T17:20:33;7.63;;;2.92;;
70414;SDS011;57837;52.064;113.478;2023-03-01T17:23:38;7.00;;;2.30;;
70414;SDS011;57837;52.064;113.478;2023-03-01T17:26:45;6.35;;;2.47;;
70414;SDS011;57837;52.064;113.478;2023-03-01T17:29:49;6.63;;;2.53;;
70414;SDS011;57837;52.064;113.478;2023-03-01T17:32:52;8.23;;;2.55;;
70414;SDS011;57837;52.064;113.478;2023-03-01T17:35:57;14.17;;;4.37;;
70414;SDS011;57837;52.064;113.478;2023-03-01T17:39:02;10.88;;;4.40;;
70414;SDS011;57837;52.064;113.478;2023-03-01T17:42:06;7.85;;;4.25;;
70414;SDS011;57837;52.064;113.478;2023-03-01T17:45:10;7.90;;;3.65;;
70414;SDS011;57837;52.064;113.478;2023-03-01T17:48:14;7.15;;;2.75;;
70414;SDS011;57837;52.064;113.478;2023-03-01T17:51:19;6.72;;;2.30;;
70414;SDS011;57837;52.064;113.478;2023-03-01T17:54:23;7.40;;;2.70;;
70414;SDS011;57837;52.064;113.478;2023-03-01T17:57:27;7.73;;;2.80;;
70414;SDS011;57837;52.064;113.478;2023-03-01T18:00:30;7.20;;;2.60;;
70414;SDS011;57837;52.064;113.478;2023-03-01T18:03:34;5.88;;;2.85;;
70414;SDS011;57837;52.064;113.478;2023-03-01T18:06:38;7.30;;;2.80;;
70414;SDS011;57837;52.064;113.478;2023-03-01T18:09:42;6.97;;;2.30;;
70414;SDS011;57837;52.064;113.478;2023-03-01T18:12:46;5.55;;;2.38;;
70414;SDS011;57837;52.064;113.478;2023-03-01T18:15:49;7.65;;;3.20;;
70414;SDS011;57837;52.064;113.478;2023-03-01T18:18:53;6.45;;;2.90;;
70414;SDS011;57837;52.064;113.478;2023-03-01T18:21:57;11.33;;;4.93;;
70414;SDS011;57837;52.064;113.478;2023-03-01T18:25:00;8.02;;;3.38;;
70414;SDS011;57837;52.064;113.478;2023-03-01T18:28:03;9.10;;;3.97;;
70414;SDS011;57837;52.064;113.478;2023-03-01T18:31:08;11.13;;;3.53;;
70414;SDS011;57837;52.064;113.478;2023-03-01T18:34:14;7.63;;;3.30;;
70414;SDS011;57837;52.064;113.478;2023-03-01T18:37:17;12.20;;;3.90;;
70414;SDS011;57837;52.064;113.478;2023-03-01T18:40:21;9.38;;;3.58;;
70414;SDS011;57837;52.064;113.478;2023-03-01T18:43:25;9.38;;;3.35;;
70414;SDS011;57837;52.064;113.478;2023-03-01T18:46:30;7.88;;;3.00;;
70414;SDS011;57837;52.064;113.478;2023-03-01T18:49:38;10.75;;;3.45;;
70414;SDS011;57837;52.064;113.478;2023-03-01T18:52:42;12.43;;;3.88;;
70414;SDS011;57837;52.064;113.478;2023-03-01T18:55:46;12.17;;;5.53;;
70414;SDS011;57837;52.064;113.478;2023-03-01T18:58:49;11.13;;;5.32;;
70414;SDS011;57837;52.064;113.478;2023-03-01T19:01:52;16.30;;;5.55;;
70414;SDS011;57837;52.064;113.478;2023-03-01T19:04:56;12.25;;;3.95;;
70414;SDS011;57837;52.064;113.478;2023-03-01T19:08:00;7.70;;;3.90;;
70414;SDS011;57837;52.064;113.478;2023-03-01T19:11:04;10.68;;;3.40;;
70414;SDS011;57837;52.064;113.478;2023-03-01T19:14:08;7.22;;;2.92;;
70414;SDS011;57837;52.064;113.478;2023-03-01T19:17:11;10.25;;;2.72;;
70414;SDS011;57837;52.064;113.478;2023-03-01T19:20:16;6.60;;;3.37;;
70414;SDS011;57837;52.064;113.478;2023-03-01T19:23:18;5.22;;;2.40;;
70414;SDS011;57837;52.064;113.478;2023-03-01T19:26:23;6.88;;;2.58;;
70414;SDS011;57837;52.064;113.478;2023-03-01T19:29:27;8.73;;;3.60;;
70414;SDS011;57837;52.064;113.478;2023-03-01T19:32:31;9.43;;;3.20;;
70414;SDS011;57837;52.064;113.478;2023-03-01T19:35:36;8.35;;;3.28;;
70414;SDS011;57837;52.064;113.478;2023-03-01T19:38:40;6.35;;;3.00;;